sensor_id;sensor_type;location;lat;lon;timestamp;temperature;humidity
21662;DHT22;10992;48.170;8.596;2023-04-15T00:01:52;0.70;99.90
21662;DHT22;10992;48.170;8.596;2023-04-15T00:04:19;0.60;99.90
21662;DHT22;10992;48.170;8.596;2023-04-15T00:06:51;0.60;99.90
21662;DHT22;10992;48.170;8.596;2023-04-15T00:09:20;0.50;99.90
21662;DHT22;10992;48.170;8.596;2023-04-15T00:11:49;0.40;99.90
21662;DHT22;10992;48.170;8.596;2023-04-15T00:14:16;0.20;99.90
21662;DHT22;10992;48.170;8.596;2023-04-15T00:16:43;0.20;99.90
21662;DHT22;10992;48.170;8.596;2023-04-15T00:19:10;0.30;99.90
21662;DHT22;10992;48.170;8.596;2023-04-15T00:21:37;0.50;99.90
21662;DHT22;10992;48.170;8.596;2023-04-15T00:24:04;0.40;99.90
21662;DHT22;10992;48.170;8.596;2023-04-15T00:26:32;0.50;99.90
21662;DHT22;10992;48.170;8.596;2023-04-15T00:28:58;0.50;99.90
21662;DHT22;10992;48.170;8.596;2023-04-15T00:31:26;0.60;99.90
21662;DHT22;10992;48.170;8.596;2023-04-15T00:33:53;0.70;99.90
21662;DHT22;10992;48.170;8.596;2023-04-15T00:36:21;0.70;99.90
21662;DHT22;10992;48.170;8.596;2023-04-15T00:38:49;0.80;99.90
21662;DHT22;10992;48.170;8.596;2023-04-15T00:41:17;0.90;99.90
21662;DHT22;10992;48.170;8.596;2023-04-15T00:43:44;0.70;99.90
21662;DHT22;10992;48.170;8.596;2023-04-15T00:46:13;0.50;99.90
21662;DHT22;10992;48.170;8.596;2023-04-15T00:48:42;0.30;99.90
21662;DHT22;10992;48.170;8.596;2023-04-15T00:51:10;0.10;99.90
21662;DHT22;10992;48.170;8.596;2023-04-15T00:53:36;0.10;99.90
21662;DHT22;10992;48.170;8.596;2023-04-15T00:56:05;0.00;99.90
21662;DHT22;10992;48.170;8.596;2023-04-15T00:58:32;0.40;99.90
21662;DHT22;10992;48.170;8.596;2023-04-15T01:00:59;0.30;99.90
21662;DHT22;10992;48.170;8.596;2023-04-15T01:03:28;0.40;99.90
21662;DHT22;10992;48.170;8.596;2023-04-15T01:05:59;0.20;99.90
21662;DHT22;10992;48.170;8.596;2023-04-15T01:08:29;0.40;99.90
21662;DHT22;10992;48.170;8.596;2023-04-15T01:11:00;0.60;99.90
21662;DHT22;10992;48.170;8.596;2023-04-15T01:13:29;0.80;99.90
21662;DHT22;10992;48.170;8.596;2023-04-15T01:15:56;0.70;99.90
21662;DHT22;10992;48.170;8.596;2023-04-15T01:18:24;0.80;99.90
21662;DHT22;10992;48.170;8.596;2023-04-15T01:20:51;0.70;99.90
21662;DHT22;10992;48.170;8.596;2023-04-15T01:23:17;0.80;99.90
21662;DHT22;10992;48.170;8.596;2023-04-15T01:25:45;0.90;99.90
21662;DHT22;10992;48.170;8.596;2023-04-15T01:28:13;0.90;99.90
21662;DHT22;10992;48.170;8.596;2023-04-15T01:30:40;0.90;99.90
21662;DHT22;10992;48.170;8.596;2023-04-15T01:33:07;0.80;99.90
21662;DHT22;10992;48.170;8.596;2023-04-15T01:35:34;0.50;99.90
21662;DHT22;10992;48.170;8.596;2023-04-15T01:38:04;0.30;99.90
21662;DHT22;10992;48.170;8.596;2023-04-15T01:40:35;0.10;99.90
21662;DHT22;10992;48.170;8.596;2023-04-15T01:43:02;-0.10;99.90
21662;DHT22;10992;48.170;8.596;2023-04-15T01:45:29;-0.10;99.90
21662;DHT22;10992;48.170;8.596;2023-04-15T01:47:56;-0.30;99.90
21662;DHT22;10992;48.170;8.596;2023-04-15T01:50:23;-0.30;99.90
21662;DHT22;10992;48.170;8.596;2023-04-15T01:52:54;-0.20;99.90
21662;DHT22;10992;48.170;8.596;2023-04-15T01:55:21;-0.20;99.90
21662;DHT22;10992;48.170;8.596;2023-04-15T01:57:48;-0.30;99.90
21662;DHT22;10992;48.170;8.596;2023-04-15T02:00:15;-0.20;99.90
21662;DHT22;10992;48.170;8.596;2023-04-15T02:02:43;-0.30;99.90
21662;DHT22;10992;48.170;8.596;2023-04-15T02:05:10;-0.30;99.90
21662;DHT22;10992;48.170;8.596;2023-04-15T02:07:37;-0.30;99.90
21662;DHT22;10992;48.170;8.596;2023-04-15T02:10:04;-0.30;99.90
21662;DHT22;10992;48.170;8.596;2023-04-15T02:12:34;-0.30;99.90
21662;DHT22;10992;48.170;8.596;2023-04-15T02:15:01;-0.40;99.90
21662;DHT22;10992;48.170;8.596;2023-04-15T02:17:28;-0.40;99.90
21662;DHT22;10992;48.170;8.596;2023-04-15T02:19:55;-0.50;99.90
21662;DHT22;10992;48.170;8.596;2023-04-15T02:22:23;-0.40;99.90
21662;DHT22;10992;48.170;8.596;2023-04-15T02:24:50;-0.40;99.90
21662;DHT22;10992;48.170;8.596;2023-04-15T02:27:17;-0.40;99.90
21662;DHT22;10992;48.170;8.596;2023-04-15T02:29:44;-0.50;99.90
21662;DHT22;10992;48.170;8.596;2023-04-15T02:32:12;-0.60;99.90
21662;DHT22;10992;48.170;8.596;2023-04-15T02:34:39;-0.60;99.90
21662;DHT22;10992;48.170;8.596;2023-04-15T02:37:09;-0.60;99.90
21662;DHT22;10992;48.170;8.596;2023-04-15T02:39:37;-0.70;99.90
21662;DHT22;10992;48.170;8.596;2023-04-15T02:42:04;-0.80;99.90
21662;DHT22;10992;48.170;8.596;2023-04-15T02:44:32;-0.70;99.90
21662;DHT22;10992;48.170;8.596;2023-04-15T02:47:02;-0.70;99.90
21662;DHT22;10992;48.170;8.596;2023-04-15T02:49:31;-0.60;99.90
21662;DHT22;10992;48.170;8.596;2023-04-15T02:51:59;-0.50;99.90
21662;DHT22;10992;48.170;8.596;2023-04-15T02:54:26;-0.40;99.90
21662;DHT22;10992;48.170;8.596;2023-04-15T02:56:56;-0.30;99.90
21662;DHT22;10992;48.170;8.596;2023-04-15T02:59:23;-0.30;99.90
21662;DHT22;10992;48.170;8.596;2023-04-15T03:01:50;-0.30;99.90
21662;DHT22;10992;48.170;8.596;2023-04-15T03:04:17;-0.30;99.90
21662;DHT22;10992;48.170;8.596;2023-04-15T03:06:45;-0.40;99.90
21662;DHT22;10992;48.170;8.596;2023-04-15T03:09:12;-0.40;99.90
21662;DHT22;10992;48.170;8.596;2023-04-15T03:11:39;-0.40;99.90
21662;DHT22;10992;48.170;8.596;2023-04-15T03:14:09;-0.60;99.90
21662;DHT22;10992;48.170;8.596;2023-04-15T03:16:41;-0.80;99.90
21662;DHT22;10992;48.170;8.596;2023-04-15T03:19:08;-0.90;99.90
21662;DHT22;10992;48.170;8.596;2023-04-15T03:21:39;-1.00;99.90
21662;DHT22;10992;48.170;8.596;2023-04-15T03:24:07;-1.00;99.90
21662;DHT22;10992;48.170;8.596;2023-04-15T03:26:34;-0.90;99.90
21662;DHT22;10992;48.170;8.596;2023-04-15T03:29:07;-1.00;99.90
21662;DHT22;10992;48.170;8.596;2023-04-15T03:31:34;-1.00;99.90
21662;DHT22;10992;48.170;8.596;2023-04-15T03:34:01;-1.00;99.90
21662;DHT22;10992;48.170;8.596;2023-04-15T03:36:29;-1.00;99.90
21662;DHT22;10992;48.170;8.596;2023-04-15T03:38:58;-0.90;99.90
21662;DHT22;10992;48.170;8.596;2023-04-15T03:41:25;-1.00;99.90
21662;DHT22;10992;48.170;8.596;2023-04-15T03:43:52;-1.00;99.90
21662;DHT22;10992;48.170;8.596;2023-04-15T03:46:19;-1.10;99.90
21662;DHT22;10992;48.170;8.596;2023-04-15T03:48:47;-1.20;99.90
21662;DHT22;10992;48.170;8.596;2023-04-15T03:51:14;-0.90;99.90
21662;DHT22;10992;48.170;8.596;2023-04-15T03:53:41;-0.70;99.90
21662;DHT22;10992;48.170;8.596;2023-04-15T03:56:08;-0.80;99.90
21662;DHT22;10992;48.170;8.596;2023-04-15T03:58:34;-0.90;99.90
21662;DHT22;10992;48.170;8.596;2023-04-15T04:01:01;-1.10;99.90
21662;DHT22;10992;48.170;8.596;2023-04-15T04:03:28;-1.00;99.90
21662;DHT22;10992;48.170;8.596;2023-04-15T04:05:56;-0.80;99.90
21662;DHT22;10992;48.170;8.596;2023-04-15T04:08:23;-0.60;99.90
21662;DHT22;10992;48.170;8.596;2023-04-15T04:10:49;-0.60;99.90
21662;DHT22;10992;48.170;8.596;2023-04-15T04:13:17;-0.60;99.90
21662;DHT22;10992;48.170;8.596;2023-04-15T04:15:43;-0.70;99.90
21662;DHT22;10992;48.170;8.596;2023-04-15T04:18:10;-0.80;99.90
21662;DHT22;10992;48.170;8.596;2023-04-15T04:20:38;-1.00;99.90
21662;DHT22;10992;48.170;8.596;2023-04-15T04:23:05;-1.00;99.90
21662;DHT22;10992;48.170;8.596;2023-04-15T04:25:32;-1.00;99.90
21662;DHT22;10992;48.170;8.596;2023-04-15T04:27:59;-0.60;99.90
21662;DHT22;10992;48.170;8.596;2023-04-15T04:30:25;-0.60;99.90
21662;DHT22;10992;48.170;8.596;2023-04-15T04:32:52;-0.70;99.90
21662;DHT22;10992;48.170;8.596;2023-04-15T04:35:19;-0.70;99.90
21662;DHT22;10992;48.170;8.596;2023-04-15T04:37:47;-0.70;99.90
21662;DHT22;10992;48.170;8.596;2023-04-15T04:40:14;-0.60;99.90
21662;DHT22;10992;48.170;8.596;2023-04-15T04:42:41;-0.60;99.90
21662;DHT22;10992;48.170;8.596;2023-04-15T04:45:09;-0.50;99.90
21662;DHT22;10992;48.170;8.596;2023-04-15T04:47:36;-0.40;99.90
21662;DHT22;10992;48.170;8.596;2023-04-15T04:50:03;-0.30;99.90
21662;DHT22;10992;48.170;8.596;2023-04-15T04:52:30;-0.20;99.90
21662;DHT22;10992;48.170;8.596;2023-04-15T04:54:57;0.00;99.90
21662;DHT22;10992;48.170;8.596;2023-04-15T04:57:24;0.10;99.90
21662;DHT22;10992;48.170;8.596;2023-04-15T04:59:51;0.30;99.90
21662;DHT22;10992;48.170;8.596;2023-04-15T05:02:18;0.40;99.90
21662;DHT22;10992;48.170;8.596;2023-04-15T05:04:45;0.50;99.90
21662;DHT22;10992;48.170;8.596;2023-04-15T05:07:15;0.60;99.90
21662;DHT22;10992;48.170;8.596;2023-04-15T05:09:42;0.90;99.90
21662;DHT22;10992;48.170;8.596;2023-04-15T05:12:09;1.10;99.90
21662;DHT22;10992;48.170;8.596;2023-04-15T05:14:41;1.20;99.90
21662;DHT22;10992;48.170;8.596;2023-04-15T05:17:08;1.40;99.90
21662;DHT22;10992;48.170;8.596;2023-04-15T05:19:35;2.10;99.90
21662;DHT22;10992;48.170;8.596;2023-04-15T05:22:02;2.90;99.90
21662;DHT22;10992;48.170;8.596;2023-04-15T05:24:29;3.80;99.90
21662;DHT22;10992;48.170;8.596;2023-04-15T05:26:56;4.80;99.90
21662;DHT22;10992;48.170;8.596;2023-04-15T05:29:23;6.00;99.90
21662;DHT22;10992;48.170;8.596;2023-04-15T05:31:50;7.00;99.90
21662;DHT22;10992;48.170;8.596;2023-04-15T05:34:18;7.50;99.90
21662;DHT22;10992;48.170;8.596;2023-04-15T05:36:45;6.90;99.90
21662;DHT22;10992;48.170;8.596;2023-04-15T05:39:12;6.60;99.90
21662;DHT22;10992;48.170;8.596;2023-04-15T05:41:39;6.10;99.90
21662;DHT22;10992;48.170;8.596;2023-04-15T05:44:06;5.50;99.90
21662;DHT22;10992;48.170;8.596;2023-04-15T05:46:33;5.10;99.90
21662;DHT22;10992;48.170;8.596;2023-04-15T05:49:00;5.00;99.90
21662;DHT22;10992;48.170;8.596;2023-04-15T05:51:27;4.70;99.90
21662;DHT22;10992;48.170;8.596;2023-04-15T05:53:54;4.60;99.90
21662;DHT22;10992;48.170;8.596;2023-04-15T05:56:21;4.40;99.90
21662;DHT22;10992;48.170;8.596;2023-04-15T05:58:48;4.20;99.90
21662;DHT22;10992;48.170;8.596;2023-04-15T06:01:18;4.40;99.90
21662;DHT22;10992;48.170;8.596;2023-04-15T06:03:44;4.60;99.90
21662;DHT22;10992;48.170;8.596;2023-04-15T06:06:12;4.80;99.90
21662;DHT22;10992;48.170;8.596;2023-04-15T06:08:40;4.90;99.90
21662;DHT22;10992;48.170;8.596;2023-04-15T06:11:07;5.10;99.90
21662;DHT22;10992;48.170;8.596;2023-04-15T06:13:34;5.20;99.90
21662;DHT22;10992;48.170;8.596;2023-04-15T06:16:03;5.30;99.90
21662;DHT22;10992;48.170;8.596;2023-04-15T06:18:30;5.30;99.90
21662;DHT22;10992;48.170;8.596;2023-04-15T06:20:57;5.40;99.90
21662;DHT22;10992;48.170;8.596;2023-04-15T06:23:24;5.40;99.90
21662;DHT22;10992;48.170;8.596;2023-04-15T06:25:53;5.50;99.90
21662;DHT22;10992;48.170;8.596;2023-04-15T06:28:20;5.70;99.90
21662;DHT22;10992;48.170;8.596;2023-04-15T06:30:47;6.00;99.90
21662;DHT22;10992;48.170;8.596;2023-04-15T06:33:14;6.00;99.90
21662;DHT22;10992;48.170;8.596;2023-04-15T06:35:41;5.90;99.90
21662;DHT22;10992;48.170;8.596;2023-04-15T06:38:08;5.50;99.90
21662;DHT22;10992;48.170;8.596;2023-04-15T06:40:35;5.50;99.90
21662;DHT22;10992;48.170;8.596;2023-04-15T06:43:02;5.60;99.90
21662;DHT22;10992;48.170;8.596;2023-04-15T06:45:30;5.30;99.90
21662;DHT22;10992;48.170;8.596;2023-04-15T06:47:58;4.80;99.90
21662;DHT22;10992;48.170;8.596;2023-04-15T06:50:25;4.90;99.90
21662;DHT22;10992;48.170;8.596;2023-04-15T06:52:53;5.40;99.90
21662;DHT22;10992;48.170;8.596;2023-04-15T06:55:20;6.00;99.90
21662;DHT22;10992;48.170;8.596;2023-04-15T06:57:47;6.60;99.90
21662;DHT22;10992;48.170;8.596;2023-04-15T07:00:14;6.70;99.90
21662;DHT22;10992;48.170;8.596;2023-04-15T07:02:41;7.20;99.90
21662;DHT22;10992;48.170;8.596;2023-04-15T07:05:08;8.00;99.90
21662;DHT22;10992;48.170;8.596;2023-04-15T07:07:35;9.20;99.90
21662;DHT22;10992;48.170;8.596;2023-04-15T07:10:03;9.90;99.90
21662;DHT22;10992;48.170;8.596;2023-04-15T07:12:30;11.50;99.90
21662;DHT22;10992;48.170;8.596;2023-04-15T07:14:58;12.20;99.90
21662;DHT22;10992;48.170;8.596;2023-04-15T07:17:25;12.20;99.90
21662;DHT22;10992;48.170;8.596;2023-04-15T07:19:52;13.10;99.90
21662;DHT22;10992;48.170;8.596;2023-04-15T07:22:19;14.00;99.90
21662;DHT22;10992;48.170;8.596;2023-04-15T07:24:46;13.80;99.90
21662;DHT22;10992;48.170;8.596;2023-04-15T07:27:13;13.60;99.90
21662;DHT22;10992;48.170;8.596;2023-04-15T07:29:40;14.00;99.90
21662;DHT22;10992;48.170;8.596;2023-04-15T07:32:07;15.10;99.90
21662;DHT22;10992;48.170;8.596;2023-04-15T07:34:36;14.90;99.90
21662;DHT22;10992;48.170;8.596;2023-04-15T07:37:03;14.80;99.90
21662;DHT22;10992;48.170;8.596;2023-04-15T07:39:30;13.50;99.90
21662;DHT22;10992;48.170;8.596;2023-04-15T07:41:57;12.80;99.90
21662;DHT22;10992;48.170;8.596;2023-04-15T07:44:26;12.40;99.90
21662;DHT22;10992;48.170;8.596;2023-04-15T07:46:53;13.50;99.90
21662;DHT22;10992;48.170;8.596;2023-04-15T07:49:20;13.10;99.90
21662;DHT22;10992;48.170;8.596;2023-04-15T07:51:47;13.00;99.90
21662;DHT22;10992;48.170;8.596;2023-04-15T07:54:14;12.80;99.90
21662;DHT22;10992;48.170;8.596;2023-04-15T07:56:41;14.50;99.90
21662;DHT22;10992;48.170;8.596;2023-04-15T07:59:08;15.40;99.90
21662;DHT22;10992;48.170;8.596;2023-04-15T08:01:36;15.90;99.90
21662;DHT22;10992;48.170;8.596;2023-04-15T08:04:03;16.20;99.90
21662;DHT22;10992;48.170;8.596;2023-04-15T08:06:30;16.20;99.90
21662;DHT22;10992;48.170;8.596;2023-04-15T08:08:57;16.50;99.90
21662;DHT22;10992;48.170;8.596;2023-04-15T08:11:24;16.20;99.90
21662;DHT22;10992;48.170;8.596;2023-04-15T08:13:51;15.90;99.90
21662;DHT22;10992;48.170;8.596;2023-04-15T08:16:25;16.00;99.90
21662;DHT22;10992;48.170;8.596;2023-04-15T08:18:54;16.80;99.90
21662;DHT22;10992;48.170;8.596;2023-04-15T08:21:22;15.90;99.90
21662;DHT22;10992;48.170;8.596;2023-04-15T08:23:50;15.90;99.90
21662;DHT22;10992;48.170;8.596;2023-04-15T08:26:19;16.10;99.90
21662;DHT22;10992;48.170;8.596;2023-04-15T08:28:47;15.60;99.90
21662;DHT22;10992;48.170;8.596;2023-04-15T08:31:15;14.60;99.90
21662;DHT22;10992;48.170;8.596;2023-04-15T08:33:42;15.90;99.90
21662;DHT22;10992;48.170;8.596;2023-04-15T08:36:09;15.70;99.90
21662;DHT22;10992;48.170;8.596;2023-04-15T08:38:36;14.20;99.90
21662;DHT22;10992;48.170;8.596;2023-04-15T08:41:10;14.40;99.90
21662;DHT22;10992;48.170;8.596;2023-04-15T08:43:46;14.50;99.90
21662;DHT22;10992;48.170;8.596;2023-04-15T08:46:14;15.60;99.90
21662;DHT22;10992;48.170;8.596;2023-04-15T08:48:43;15.70;99.90
21662;DHT22;10992;48.170;8.596;2023-04-15T08:51:10;16.10;99.90
21662;DHT22;10992;48.170;8.596;2023-04-15T08:53:37;16.00;99.90
21662;DHT22;10992;48.170;8.596;2023-04-15T08:56:06;18.00;99.90
21662;DHT22;10992;48.170;8.596;2023-04-15T08:58:36;19.20;99.30
21662;DHT22;10992;48.170;8.596;2023-04-15T09:01:03;18.60;98.00
21662;DHT22;10992;48.170;8.596;2023-04-15T09:03:31;19.00;98.60
21662;DHT22;10992;48.170;8.596;2023-04-15T09:05:58;19.30;96.70
21662;DHT22;10992;48.170;8.596;2023-04-15T09:08:25;19.70;92.80
21662;DHT22;10992;48.170;8.596;2023-04-15T09:10:53;18.80;92.80
21662;DHT22;10992;48.170;8.596;2023-04-15T09:13:20;19.00;93.20
21662;DHT22;10992;48.170;8.596;2023-04-15T09:15:47;19.80;93.30
21662;DHT22;10992;48.170;8.596;2023-04-15T09:18:27;20.60;93.80
21662;DHT22;10992;48.170;8.596;2023-04-15T09:20:54;21.10;93.70
21662;DHT22;10992;48.170;8.596;2023-04-15T09:23:22;20.90;90.60
21662;DHT22;10992;48.170;8.596;2023-04-15T09:25:49;20.70;85.80
21662;DHT22;10992;48.170;8.596;2023-04-15T09:28:23;17.90;88.00
21662;DHT22;10992;48.170;8.596;2023-04-15T09:30:55;18.60;90.30
21662;DHT22;10992;48.170;8.596;2023-04-15T09:33:23;18.80;88.90
21662;DHT22;10992;48.170;8.596;2023-04-15T09:35:57;18.60;88.60
21662;DHT22;10992;48.170;8.596;2023-04-15T09:38:25;18.80;90.20
21662;DHT22;10992;48.170;8.596;2023-04-15T09:40:52;17.80;90.20
21662;DHT22;10992;48.170;8.596;2023-04-15T09:43:19;17.50;87.50
21662;DHT22;10992;48.170;8.596;2023-04-15T09:45:51;17.30;89.40
21662;DHT22;10992;48.170;8.596;2023-04-15T09:48:21;15.40;91.20
21662;DHT22;10992;48.170;8.596;2023-04-15T09:50:49;15.60;92.30
21662;DHT22;10992;48.170;8.596;2023-04-15T09:53:17;14.40;93.70
21662;DHT22;10992;48.170;8.596;2023-04-15T09:55:57;14.20;95.00
21662;DHT22;10992;48.170;8.596;2023-04-15T09:58:32;15.50;93.10
21662;DHT22;10992;48.170;8.596;2023-04-15T10:01:01;15.90;91.40
21662;DHT22;10992;48.170;8.596;2023-04-15T10:03:30;16.80;93.20
21662;DHT22;10992;48.170;8.596;2023-04-15T10:05:59;17.30;91.60
21662;DHT22;10992;48.170;8.596;2023-04-15T10:08:31;17.50;91.60
21662;DHT22;10992;48.170;8.596;2023-04-15T10:11:03;17.20;90.50
21662;DHT22;10992;48.170;8.596;2023-04-15T10:13:31;17.10;91.20
21662;DHT22;10992;48.170;8.596;2023-04-15T10:16:09;16.30;92.20
21662;DHT22;10992;48.170;8.596;2023-04-15T10:19:00;16.60;90.80
21662;DHT22;10992;48.170;8.596;2023-04-15T10:21:29;16.60;91.30
21662;DHT22;10992;48.170;8.596;2023-04-15T10:23:57;16.80;89.20
21662;DHT22;10992;48.170;8.596;2023-04-15T10:26:25;17.20;90.40
21662;DHT22;10992;48.170;8.596;2023-04-15T10:28:52;18.00;90.50
21662;DHT22;10992;48.170;8.596;2023-04-15T10:31:19;18.60;88.30
21662;DHT22;10992;48.170;8.596;2023-04-15T10:33:47;18.20;89.00
21662;DHT22;10992;48.170;8.596;2023-04-15T10:36:15;17.90;91.80
21662;DHT22;10992;48.170;8.596;2023-04-15T10:38:45;16.70;91.40
21662;DHT22;10992;48.170;8.596;2023-04-15T10:41:23;16.20;91.00
21662;DHT22;10992;48.170;8.596;2023-04-15T10:44:03;16.40;90.70
21662;DHT22;10992;48.170;8.596;2023-04-15T10:46:44;16.90;91.70
21662;DHT22;10992;48.170;8.596;2023-04-15T10:49:16;16.60;92.50
21662;DHT22;10992;48.170;8.596;2023-04-15T10:51:46;16.80;92.50
21662;DHT22;10992;48.170;8.596;2023-04-15T10:54:29;17.50;92.40
21662;DHT22;10992;48.170;8.596;2023-04-15T10:59:32;17.70;90.80
21662;DHT22;10992;48.170;8.596;2023-04-15T11:02:03;16.70;92.30
21662;DHT22;10992;48.170;8.596;2023-04-15T11:12:54;16.40;94.40
21662;DHT22;10992;48.170;8.596;2023-04-15T11:17:57;16.10;92.90
21662;DHT22;10992;48.170;8.596;2023-04-15T11:20:25;15.20;93.50
21662;DHT22;10992;48.170;8.596;2023-04-15T11:22:53;15.00;94.20
21662;DHT22;10992;48.170;8.596;2023-04-15T11:25:40;14.90;93.90
21662;DHT22;10992;48.170;8.596;2023-04-15T11:28:10;14.60;93.40
21662;DHT22;10992;48.170;8.596;2023-04-15T11:30:38;14.90;93.90
21662;DHT22;10992;48.170;8.596;2023-04-15T11:33:08;14.60;96.10
21662;DHT22;10992;48.170;8.596;2023-04-15T11:35:35;15.30;94.90
21662;DHT22;10992;48.170;8.596;2023-04-15T11:38:10;15.80;93.80
21662;DHT22;10992;48.170;8.596;2023-04-15T11:40:38;16.00;92.90
21662;DHT22;10992;48.170;8.596;2023-04-15T11:43:08;15.90;95.20
21662;DHT22;10992;48.170;8.596;2023-04-15T11:45:44;16.40;93.40
21662;DHT22;10992;48.170;8.596;2023-04-15T11:48:13;16.20;92.90
21662;DHT22;10992;48.170;8.596;2023-04-15T11:50:40;15.80;93.80
21662;DHT22;10992;48.170;8.596;2023-04-15T11:53:09;15.90;93.20
21662;DHT22;10992;48.170;8.596;2023-04-15T11:55:47;16.40;92.80
21662;DHT22;10992;48.170;8.596;2023-04-15T11:58:16;16.00;92.60
21662;DHT22;10992;48.170;8.596;2023-04-15T12:00:52;15.80;94.40
21662;DHT22;10992;48.170;8.596;2023-04-15T12:06:19;16.10;92.90
21662;DHT22;10992;48.170;8.596;2023-04-15T12:09:11;15.80;92.00
21662;DHT22;10992;48.170;8.596;2023-04-15T12:11:44;15.10;91.30
21662;DHT22;10992;48.170;8.596;2023-04-15T12:14:33;14.10;93.90
21662;DHT22;10992;48.170;8.596;2023-04-15T12:17:02;13.40;92.50
21662;DHT22;10992;48.170;8.596;2023-04-15T12:19:37;13.40;92.30
21662;DHT22;10992;48.170;8.596;2023-04-15T12:22:12;13.50;90.60
21662;DHT22;10992;48.170;8.596;2023-04-15T12:24:41;13.70;91.20
21662;DHT22;10992;48.170;8.596;2023-04-15T12:27:11;13.20;91.10
21662;DHT22;10992;48.170;8.596;2023-04-15T12:29:39;13.10;91.40
21662;DHT22;10992;48.170;8.596;2023-04-15T12:32:10;13.10;93.00
21662;DHT22;10992;48.170;8.596;2023-04-15T12:34:43;13.00;93.80
21662;DHT22;10992;48.170;8.596;2023-04-15T12:37:11;13.00;94.10
21662;DHT22;10992;48.170;8.596;2023-04-15T12:39:41;13.20;94.30
21662;DHT22;10992;48.170;8.596;2023-04-15T12:42:11;12.90;94.80
21662;DHT22;10992;48.170;8.596;2023-04-15T12:44:38;12.90;95.00
21662;DHT22;10992;48.170;8.596;2023-04-15T12:47:06;12.80;95.30
21662;DHT22;10992;48.170;8.596;2023-04-15T12:49:33;13.00;95.80
21662;DHT22;10992;48.170;8.596;2023-04-15T12:52:01;13.00;96.40
21662;DHT22;10992;48.170;8.596;2023-04-15T12:54:31;13.00;97.00
21662;DHT22;10992;48.170;8.596;2023-04-15T12:56:59;12.90;96.60
21662;DHT22;10992;48.170;8.596;2023-04-15T12:59:26;13.00;97.00
21662;DHT22;10992;48.170;8.596;2023-04-15T13:01:53;13.30;97.60
21662;DHT22;10992;48.170;8.596;2023-04-15T13:04:21;13.60;96.70
21662;DHT22;10992;48.170;8.596;2023-04-15T13:06:49;14.00;96.20
21662;DHT22;10992;48.170;8.596;2023-04-15T13:09:16;14.10;96.70
21662;DHT22;10992;48.170;8.596;2023-04-15T13:11:43;14.10;96.30
21662;DHT22;10992;48.170;8.596;2023-04-15T13:14:10;14.30;96.80
21662;DHT22;10992;48.170;8.596;2023-04-15T13:16:38;14.40;96.40
21662;DHT22;10992;48.170;8.596;2023-04-15T13:19:06;14.30;95.50
21662;DHT22;10992;48.170;8.596;2023-04-15T13:21:33;14.10;96.90
21662;DHT22;10992;48.170;8.596;2023-04-15T13:24:02;13.60;95.80
21662;DHT22;10992;48.170;8.596;2023-04-15T13:26:30;13.90;96.60
21662;DHT22;10992;48.170;8.596;2023-04-15T13:28:58;13.60;95.20
21662;DHT22;10992;48.170;8.596;2023-04-15T13:31:25;13.30;96.30
21662;DHT22;10992;48.170;8.596;2023-04-15T13:33:52;13.50;96.50
21662;DHT22;10992;48.170;8.596;2023-04-15T13:36:19;13.90;96.10
21662;DHT22;10992;48.170;8.596;2023-04-15T13:38:47;14.50;95.90
21662;DHT22;10992;48.170;8.596;2023-04-15T13:41:17;14.90;96.20
21662;DHT22;10992;48.170;8.596;2023-04-15T13:43:44;15.10;97.50
21662;DHT22;10992;48.170;8.596;2023-04-15T13:46:11;15.40;94.60
21662;DHT22;10992;48.170;8.596;2023-04-15T13:48:38;15.00;95.60
21662;DHT22;10992;48.170;8.596;2023-04-15T13:51:05;15.20;95.20
21662;DHT22;10992;48.170;8.596;2023-04-15T13:53:32;14.90;95.80
21662;DHT22;10992;48.170;8.596;2023-04-15T13:56:07;14.50;98.60
21662;DHT22;10992;48.170;8.596;2023-04-15T13:58:35;14.20;99.90
21662;DHT22;10992;48.170;8.596;2023-04-15T14:01:03;14.10;99.90
21662;DHT22;10992;48.170;8.596;2023-04-15T14:03:33;14.20;99.90
21662;DHT22;10992;48.170;8.596;2023-04-15T14:06:01;13.90;99.90
21662;DHT22;10992;48.170;8.596;2023-04-15T14:08:29;13.70;99.90
21662;DHT22;10992;48.170;8.596;2023-04-15T14:10:56;13.80;99.90
21662;DHT22;10992;48.170;8.596;2023-04-15T14:13:23;14.00;99.90
21662;DHT22;10992;48.170;8.596;2023-04-15T14:15:50;14.20;99.90
21662;DHT22;10992;48.170;8.596;2023-04-15T14:18:17;14.00;99.90
21662;DHT22;10992;48.170;8.596;2023-04-15T14:20:44;14.10;99.90
21662;DHT22;10992;48.170;8.596;2023-04-15T14:23:11;13.70;99.90
21662;DHT22;10992;48.170;8.596;2023-04-15T14:25:38;13.60;99.90
21662;DHT22;10992;48.170;8.596;2023-04-15T14:28:06;13.50;99.90
21662;DHT22;10992;48.170;8.596;2023-04-15T14:30:32;13.60;99.90
21662;DHT22;10992;48.170;8.596;2023-04-15T14:32:59;13.50;99.90
21662;DHT22;10992;48.170;8.596;2023-04-15T14:35:27;13.60;99.90
21662;DHT22;10992;48.170;8.596;2023-04-15T14:37:55;13.70;99.90
21662;DHT22;10992;48.170;8.596;2023-04-15T14:40:22;13.40;99.90
21662;DHT22;10992;48.170;8.596;2023-04-15T14:42:49;13.40;99.90
21662;DHT22;10992;48.170;8.596;2023-04-15T14:45:16;13.50;99.90
21662;DHT22;10992;48.170;8.596;2023-04-15T14:47:43;13.50;97.80
21662;DHT22;10992;48.170;8.596;2023-04-15T14:50:11;13.50;97.40
21662;DHT22;10992;48.170;8.596;2023-04-15T14:52:38;13.40;96.80
21662;DHT22;10992;48.170;8.596;2023-04-15T14:55:07;13.20;97.10
21662;DHT22;10992;48.170;8.596;2023-04-15T14:57:37;13.50;95.80
21662;DHT22;10992;48.170;8.596;2023-04-15T15:00:05;13.30;95.10
21662;DHT22;10992;48.170;8.596;2023-04-15T15:02:33;13.00;94.80
21662;DHT22;10992;48.170;8.596;2023-04-15T15:05:06;12.90;93.10
21662;DHT22;10992;48.170;8.596;2023-04-15T15:07:33;13.00;92.30
21662;DHT22;10992;48.170;8.596;2023-04-15T15:10:01;12.90;91.70
21662;DHT22;10992;48.170;8.596;2023-04-15T15:12:28;12.90;92.80
21662;DHT22;10992;48.170;8.596;2023-04-15T15:14:55;12.80;94.50
21662;DHT22;10992;48.170;8.596;2023-04-15T15:17:22;12.90;93.10
21662;DHT22;10992;48.170;8.596;2023-04-15T15:19:49;12.60;93.30
21662;DHT22;10992;48.170;8.596;2023-04-15T15:22:16;12.60;93.50
21662;DHT22;10992;48.170;8.596;2023-04-15T15:24:46;12.50;95.10
21662;DHT22;10992;48.170;8.596;2023-04-15T15:27:14;12.50;94.60
21662;DHT22;10992;48.170;8.596;2023-04-15T15:29:41;12.20;94.80
21662;DHT22;10992;48.170;8.596;2023-04-15T15:32:10;12.00;95.20
21662;DHT22;10992;48.170;8.596;2023-04-15T15:34:38;12.10;96.10
21662;DHT22;10992;48.170;8.596;2023-04-15T15:37:05;12.10;96.40
21662;DHT22;10992;48.170;8.596;2023-04-15T15:39:34;11.90;97.10
21662;DHT22;10992;48.170;8.596;2023-04-15T15:42:01;11.90;97.20
21662;DHT22;10992;48.170;8.596;2023-04-15T15:44:28;11.80;97.60
21662;DHT22;10992;48.170;8.596;2023-04-15T15:46:55;11.80;97.40
21662;DHT22;10992;48.170;8.596;2023-04-15T15:49:23;11.80;97.70
21662;DHT22;10992;48.170;8.596;2023-04-15T15:51:51;11.70;97.70
21662;DHT22;10992;48.170;8.596;2023-04-15T15:54:18;11.60;98.90
21662;DHT22;10992;48.170;8.596;2023-04-15T15:56:45;11.50;99.00
21662;DHT22;10992;48.170;8.596;2023-04-15T15:59:12;11.40;99.70